Time;durP1;ratioP1;P1;durP2;ratioP2;P2;SDS_P1;SDS_P2;PMS_P1;PMS_P2;Temp;Humidity;BMP_temperature;BMP_pressure;BME280_temperature;BME280_humidity;BME280_pressure;Samples;Min_cycle;Max_cycle;Signal;HPM_P1;HPM_P2
2021/07/11 17:50:34;;;;;;;6.15;4.97;;;;;;;24.54;50.66;99975.22;5023784;28;106199;-71
2021/07/11 17:53:01;;;;;;;9.00;5.47;;;;;;;24.52;51.18;99980.09;5020264;28;106452;-67
2021/07/11 17:55:26;;;;;;;9.65;5.20;;;;;;;24.52;51.99;99982.81;5008587;27;106364;-68
2021/07/11 17:57:52;;;;;;;6.25;5.13;;;;;;;24.54;52.20;99997.00;5003505;28;106113;-69
2021/07/11 18:00:18;;;;;;;7.05;6.00;;;;;;;24.56;52.77;99989.34;5004752;28;106162;-68
2021/07/11 18:02:44;;;;;;;8.35;6.00;;;;;;;24.60;52.87;99989.66;5023210;28;106091;-68
2021/07/11 18:05:11;;;;;;;9.85;6.38;;;;;;;24.65;52.97;99990.50;5023516;27;106014;-67
2021/07/11 18:07:37;;;;;;;5.90;4.30;;;;;;;24.70;53.18;99997.03;5023695;27;106020;-68
2021/07/11 18:10:05;;;;;;;11.68;5.07;;;;;;;24.73;53.46;99999.22;5020604;28;106020;-67
2021/07/11 18:12:30;;;;;;;8.40;4.63;;;;;;;24.74;53.31;100007.16;5023804;28;106739;-67
2021/07/11 18:14:55;;;;;;;6.55;4.57;;;;;;;24.75;53.43;100002.50;5020785;28;106681;-67
2021/07/11 18:17:21;;;;;;;10.45;8.18;;;;;;;24.76;53.83;99998.72;5022622;28;106567;-67
2021/07/11 18:19:46;;;;;;;5.97;5.38;;;;;;;24.74;53.86;99992.69;5022883;28;106156;-66
2021/07/11 18:22:11;;;;;;;6.40;5.65;;;;;;;24.72;54.05;99992.97;5024430;27;106063;-67
2021/07/11 18:24:37;;;;;;;6.15;4.85;;;;;;;24.69;54.20;99989.97;5023515;27;106218;-67
2021/07/11 18:27:03;;;;;;;7.30;5.05;;;;;;;24.65;54.72;99990.50;5015312;28;106158;-67
2021/07/11 18:29:30;;;;;;;6.03;5.30;;;;;;;24.62;54.94;99987.53;5003395;28;106069;-68
2021/07/11 18:31:56;;;;;;;5.50;4.93;;;;;;;24.59;55.13;99988.84;5004169;28;106001;-66
2021/07/11 18:34:21;;;;;;;7.85;5.30;;;;;;;24.55;55.35;99985.03;5003987;28;106383;-68
2021/07/11 18:36:47;;;;;;;16.33;11.63;;;;;;;24.52;55.82;99988.25;5001175;28;108063;-67
2021/07/11 18:39:13;;;;;;;7.05;5.20;;;;;;;24.52;55.93;99998.34;5002848;28;106004;-68
2021/07/11 18:41:38;;;;;;;6.53;5.82;;;;;;;24.52;55.92;99977.38;5009865;28;106338;-66
2021/07/11 18:44:04;;;;;;;10.27;6.18;;;;;;;24.50;56.30;99968.66;5023693;27;106100;-67
2021/07/11 18:46:31;;;;;;;6.45;5.75;;;;;;;24.48;56.61;99971.66;5023494;27;106508;-68
2021/07/11 18:48:56;;;;;;;9.48;6.03;;;;;;;24.48;56.41;99974.38;5022341;28;106257;-68
2021/07/11 18:51:22;;;;;;;8.00;5.85;;;;;;;24.43;56.64;99984.44;5024194;28;106471;-67
2021/07/11 18:53:47;;;;;;;6.10;5.35;;;;;;;24.38;56.78;99985.22;5023377;27;105966;-68
2021/07/11 18:56:12;;;;;;;6.00;5.45;;;;;;;24.39;57.30;100021.44;5020725;28;106417;-72
2021/07/11 18:58:38;;;;;;;11.80;6.85;;;;;;;24.25;57.60;100049.16;5002597;28;106107;-70
2021/07/11 19:01:03;;;;;;;8.85;6.15;;;;;;;23.62;58.43;100085.19;5012254;28;106670;-70
2021/07/11 19:03:29;;;;;;;9.48;7.57;;;;;;;21.80;59.55;100093.28;5009100;28;106853;-73
2021/07/11 19:05:54;;;;;;;10.65;6.18;;;;;;;20.35;63.81;100088.91;5009224;28;106607;-70
2021/07/11 19:08:20;;;;;;;8.43;6.47;;;;;;;19.41;67.11;100082.34;5008990;28;106606;-73
2021/07/11 19:10:46;;;;;;;9.00;6.55;;;;;;;18.84;69.39;100072.75;5008129;28;106245;-72
2021/07/11 19:13:11;;;;;;;6.65;4.55;;;;;;;18.50;70.65;100075.03;5009300;28;105911;-71
2021/07/11 19:15:37;;;;;;;9.15;6.15;;;;;;;18.20;71.89;100073.06;5008991;28;106232;-69
2021/07/11 19:18:05;;;;;;;10.43;7.40;;;;;;;18.02;73.10;100079.28;5009383;28;105865;-70
2021/07/11 19:20:30;;;;;;;11.27;6.43;;;;;;;17.89;73.85;100073.97;5010111;28;106294;-67
2021/07/11 19:22:59;;;;;;;10.07;7.20;;;;;;;17.77;74.94;100073.88;5008055;28;106340;-69
2021/07/11 19:25:28;;;;;;;10.50;8.75;;;;;;;17.72;75.53;100073.72;5008537;28;106454;-66
2021/07/11 19:27:54;;;;;;;11.57;8.63;;;;;;;17.73;76.44;100070.00;5008593;28;106188;-63
2021/07/11 19:30:21;;;;;;;15.30;10.57;;;;;;;17.75;77.17;100078.66;5009890;28;106057;-64
2021/07/11 19:32:46;;;;;;;13.18;9.25;;;;;;;17.78;77.47;100064.75;5008769;28;106233;-66
2021/07/11 19:35:16;;;;;;;16.40;10.57;;;;;;;17.82;78.10;100068.63;5008485;28;106517;-66
2021/07/11 19:37:52;;;;;;;18.65;11.95;;;;;;;17.90;78.62;100060.28;5008377;28;106358;-64
2021/07/11 19:40:21;;;;;;;16.13;11.45;;;;;;;17.97;78.79;100054.03;5009049;28;106212;-67
2021/07/11 19:42:47;;;;;;;17.95;12.48;;;;;;;18.04;79.25;100054.78;5008331;28;106242;-69
2021/07/11 19:45:13;;;;;;;27.30;15.23;;;;;;;18.11;79.59;100060.94;5008625;28;106723;-69
2021/07/11 19:47:39;;;;;;;32.38;22.25;;;;;;;18.18;79.78;100040.13;5008063;28;106187;-70
2021/07/11 19:50:06;;;;;;;22.17;15.05;;;;;;;18.19;79.90;100060.66;5008635;28;106234;-69
2021/07/11 19:52:31;;;;;;;16.95;12.27;;;;;;;18.17;79.96;100070.84;5008679;28;106332;-69
2021/07/11 19:54:57;;;;;;;21.83;13.50;;;;;;;18.15;80.13;100083.72;5006957;28;106627;-70
2021/07/11 19:57:22;;;;;;;23.40;14.45;;;;;;;18.14;80.71;100084.75;5007119;28;106371;-68
2021/07/11 19:59:48;;;;;;;26.85;16.35;;;;;;;18.20;81.24;100083.84;5006977;28;106464;-68
2021/07/11 20:02:13;;;;;;;23.95;15.32;;;;;;;18.25;81.39;100083.22;5006870;28;105917;-69
